Poughkeepsie, New York
Current Conditions -  °F | °C
As of 12:53 PM on Thursday 18 Dec 2014 (Local Time) from KPOU Reporting Station
Scattered Clouds Scattered Clouds  
Wind Chill:   Ceiling: Unl
Heat Index:   Visibility: 10mi
Dew Point: -4°   Wind: 12mph
Humidity: 51%   Direction: 270°W
Pressure: 29.91"   Gusts: NA
Location:  41.71°N, 73.93°W
Report Text: KPOU 181753Z 27010KT 10SM SCT040 06/M04 A2991 RMK AO2 SLP125 T00561039 10056 20033 56014
Loading
Personal Weather Stations






























Interactive Weather Map New forecast layout! Learn more

10-Day Weather Forecast

Advertisements
Track Severe Weather on mobile